createdAt,value
2017-03-14T00:00:34.796Z,96.97
2017-03-14T00:01:15.450Z,96.97
2017-03-14T00:01:56.101Z,96.97
2017-03-14T00:02:36.755Z,96.92
2017-03-14T00:03:17.400Z,96.97
2017-03-14T00:03:58.066Z,96.92
2017-03-14T00:04:38.714Z,97.26
2017-03-14T00:05:19.374Z,97.17
2017-03-14T00:06:00.026Z,96.88
2017-03-14T00:06:40.665Z,97.07
2017-03-14T00:07:21.320Z,96.97
2017-03-14T00:08:01.985Z,96.92
2017-03-14T00:08:42.637Z,96.73
2017-03-14T00:09:23.285Z,97.12
2017-03-14T00:10:03.945Z,97.12
2017-03-14T00:10:44.590Z,97.21
2017-03-14T00:11:25.243Z,97.12
2017-03-14T00:12:05.835Z,97.02
2017-03-14T00:12:46.414Z,97.12
2017-03-14T00:13:26.993Z,97.02
2017-03-14T00:14:07.648Z,97.12
2017-03-14T00:14:48.241Z,96.92
2017-03-14T00:15:28.836Z,97.02
2017-03-14T00:16:09.419Z,97.31
2017-03-14T00:16:50.069Z,97.31
2017-03-14T00:17:30.712Z,97.31
2017-03-14T00:18:11.363Z,97.59
2017-03-14T00:18:52.055Z,97.69
2017-03-14T00:19:32.660Z,97.78
2017-03-14T00:20:13.321Z,97.69
2017-03-14T00:20:53.977Z,97.78
2017-03-14T00:21:34.615Z,97.78
2017-03-14T00:22:15.278Z,97.69
2017-03-14T00:22:55.937Z,97.59
2017-03-14T00:23:36.584Z,97.69
2017-03-14T00:24:17.234Z,97.59
2017-03-14T00:24:57.898Z,97.78
2017-03-14T00:25:38.556Z,97.69
2017-03-14T00:26:19.198Z,97.69
2017-03-14T00:26:59.791Z,97.78
2017-03-14T00:27:40.379Z,97.78
2017-03-14T00:28:20.956Z,97.78
2017-03-14T00:29:01.602Z,97.69
2017-03-14T00:29:42.196Z,97.69
2017-03-14T00:30:22.794Z,97.69
2017-03-14T00:31:03.356Z,97.31
2017-03-14T00:31:44.016Z,97.59
2017-03-14T00:32:24.704Z,97.31
2017-03-14T00:33:05.302Z,97.4
2017-03-14T00:33:45.872Z,97.5
2017-03-14T00:34:26.561Z,97.5
2017-03-14T00:35:07.103Z,97.59
2017-03-14T00:35:47.713Z,97.59
2017-03-14T00:36:28.279Z,97.59
2017-03-14T00:37:08.933Z,97.59
2017-03-14T00:37:49.580Z,97.59
2017-03-14T00:38:30.227Z,97.31
2017-03-14T00:39:10.882Z,97.4
2017-03-14T00:39:51.552Z,97.31
2017-03-14T00:40:32.205Z,97.69
2017-03-14T00:41:12.853Z,97.31
2017-03-14T00:41:53.438Z,97.31
2017-03-14T00:42:34.035Z,97.4
2017-03-14T00:43:14.597Z,97.31
2017-03-14T00:43:55.265Z,97.4
2017-03-14T00:44:35.844Z,97.4
2017-03-14T00:45:16.441Z,97.5
2017-03-14T00:45:57.004Z,97.78
2017-03-14T00:46:37.653Z,97.88
2017-03-14T00:47:18.252Z,97.69
2017-03-14T00:47:58.844Z,97.31
2017-03-14T00:48:39.421Z,97.69
2017-03-14T00:49:20.064Z,97.31
2017-03-14T00:50:00.666Z,97.5
2017-03-14T00:50:41.282Z,97.31
2017-03-14T00:51:21.836Z,97.31
2017-03-14T00:52:02.480Z,97.31
2017-03-14T00:52:43.099Z,97.31
2017-03-14T00:53:23.670Z,97.31
2017-03-14T00:54:04.333Z,97.78
2017-03-14T00:54:44.967Z,97.31
2017-03-14T00:55:25.579Z,97.21
2017-03-14T00:56:06.181Z,97.31
2017-03-14T00:56:46.815Z,97.59
2017-03-14T00:57:27.384Z,97.59
2017-03-14T00:58:08.048Z,97.4
2017-03-14T00:58:48.692Z,97.5
2017-03-14T00:59:29.347Z,97.5
2017-03-14T01:00:09.986Z,97.69
2017-03-14T01:00:50.678Z,97.59
2017-03-14T01:01:31.416Z,97.5
2017-03-14T01:02:12.057Z,97.4
2017-03-14T01:02:52.704Z,97.4
2017-03-14T01:03:33.366Z,97.59
2017-03-14T01:04:14.016Z,97.5
2017-03-14T01:04:54.684Z,97.64
2017-03-14T01:05:35.332Z,97.69
2017-03-14T01:06:16.008Z,97.5
2017-03-14T01:06:56.641Z,97.5
2017-03-14T01:07:37.293Z,97.5
2017-03-14T01:08:17.942Z,97.5
2017-03-14T01:08:58.586Z,97.31
2017-03-14T01:09:39.239Z,97.5
2017-03-14T01:10:19.900Z,97.31
2017-03-14T01:11:00.542Z,97.4
2017-03-14T01:11:41.209Z,97.5
2017-03-14T01:12:21.850Z,97.69
2017-03-14T01:13:02.411Z,97.4
2017-03-14T01:13:43.051Z,97.4
2017-03-14T01:14:23.693Z,97.5
2017-03-14T01:15:04.268Z,97.5
2017-03-14T01:15:44.922Z,97.31
2017-03-14T01:16:25.560Z,97.59
2017-03-14T01:17:06.132Z,97.88
2017-03-14T01:17:46.777Z,97.69
2017-03-14T01:18:27.438Z,97.69
2017-03-14T01:19:08.078Z,97.69
2017-03-14T01:19:48.732Z,97.69
2017-03-14T01:20:29.388Z,97.78
2017-03-14T01:21:10.047Z,97.78
2017-03-14T01:21:50.616Z,97.78
2017-03-14T01:22:31.218Z,97.69
2017-03-14T01:23:11.794Z,97.78
2017-03-14T01:23:52.447Z,97.78
2017-03-14T01:24:33.036Z,97.69
2017-03-14T01:25:13.628Z,97.69
2017-03-14T01:25:54.200Z,97.69
2017-03-14T01:26:34.834Z,97.59
2017-03-14T01:27:15.502Z,97.5
2017-03-14T01:27:56.117Z,97.21
2017-03-14T01:28:36.690Z,97.5
2017-03-14T01:29:19.265Z,97.12
2017-03-14T01:29:59.868Z,97.12
2017-03-14T01:30:40.471Z,97.88
2017-03-14T01:31:21.051Z,97.21
2017-03-14T01:32:03.617Z,97.21
2017-03-14T01:32:45.305Z,97.21
2017-03-14T01:33:26.988Z,97.88
2017-03-14T01:34:07.643Z,97.88
2017-03-14T01:34:48.299Z,97.21
2017-03-14T01:35:29.964Z,97.12
2017-03-14T01:36:11.651Z,97.31
2017-03-14T01:36:53.300Z,97.12
2017-03-14T01:37:33.889Z,97.12
2017-03-14T01:38:14.528Z,96.83
2017-03-14T01:38:55.161Z,97.31
2017-03-14T01:39:35.734Z,97.12
2017-03-14T01:40:16.386Z,97.12
2017-03-14T01:40:57.011Z,97.31
2017-03-14T01:41:37.591Z,97.12
2017-03-14T01:42:19.276Z,97.12
2017-03-14T01:42:59.950Z,97.12
2017-03-14T01:43:40.547Z,96.83
2017-03-14T01:44:21.114Z,97.12
2017-03-14T01:45:01.767Z,97.12
2017-03-14T01:45:42.356Z,96.92
2017-03-14T01:46:22.956Z,96.92
2017-03-14T01:47:03.598Z,96.92
2017-03-14T01:47:46.312Z,97.02
2017-03-14T01:48:26.957Z,97.12
2017-03-14T01:49:08.540Z,97.21
2017-03-14T01:49:49.201Z,96.83
2017-03-14T01:50:29.839Z,96.83
2017-03-14T01:51:11.427Z,97.21
2017-03-14T01:51:52.009Z,97.02
2017-03-14T01:52:37.141Z,97.12
2017-03-14T01:53:17.739Z,97.12
2017-03-14T01:54:00.374Z,97.21
2017-03-14T01:54:40.948Z,97.12
2017-03-14T01:55:21.594Z,97.31
2017-03-14T01:56:02.197Z,97.31
2017-03-14T01:56:42.790Z,97.21
2017-03-14T01:57:25.393Z,97.21
2017-03-14T01:58:06.985Z,97.12
2017-03-14T01:58:47.544Z,97.12
2017-03-14T01:59:28.163Z,97.12
2017-03-14T02:00:08.819Z,97.12
2017-03-14T02:00:49.462Z,97.31
2017-03-14T02:01:30.113Z,97.12
2017-03-14T02:02:12.721Z,97.12
2017-03-14T02:02:53.374Z,97.02
2017-03-14T02:03:35.987Z,97.12
2017-03-14T02:04:21.342Z,97.12
2017-03-14T02:05:03.023Z,97.12
2017-03-14T02:05:43.668Z,97.02
2017-03-14T02:06:25.351Z,97.21
2017-03-14T02:07:05.918Z,97.02
2017-03-14T02:07:46.562Z,96.83
2017-03-14T02:08:27.220Z,97.12
2017-03-14T02:09:07.892Z,97.02
2017-03-14T02:09:49.559Z,96.83
2017-03-14T02:10:30.221Z,97.02
2017-03-14T02:11:10.900Z,96.92
2017-03-14T02:11:51.502Z,96.83
2017-03-14T02:12:32.039Z,96.73
2017-03-14T02:13:12.708Z,96.83
2017-03-14T02:13:53.343Z,96.73
2017-03-14T02:14:33.912Z,97.12
2017-03-14T02:15:15.583Z,97.02
2017-03-14T02:15:56.239Z,97.12
2017-03-14T02:16:36.804Z,97.12
2017-03-14T02:17:19.372Z,97.02
2017-03-14T02:18:01.021Z,97.21
2017-03-14T02:18:41.702Z,97.02
2017-03-14T02:19:22.250Z,97.21
2017-03-14T02:20:02.911Z,97.21
2017-03-14T02:20:44.543Z,97.12
2017-03-14T02:21:25.128Z,97.12
2017-03-14T02:22:05.718Z,97.12
2017-03-14T02:22:58.120Z,96.64
2017-03-14T02:23:38.757Z,97.12
2017-03-14T02:24:19.323Z,96.73
2017-03-14T02:25:00.911Z,96.83
2017-03-14T02:25:41.542Z,96.92
2017-03-14T02:26:22.126Z,97.02
2017-03-14T02:27:02.764Z,96.83
2017-03-14T02:27:43.438Z,96.92
2017-03-14T02:28:26.122Z,97.21
2017-03-14T02:29:07.815Z,97.21
2017-03-14T02:29:48.456Z,97.12
2017-03-14T02:30:29.107Z,97.02
2017-03-14T02:31:09.751Z,97.12
2017-03-14T02:31:50.402Z,97.21
2017-03-14T02:32:31.073Z,97.12
2017-03-14T02:33:11.734Z,97.12
2017-03-14T02:33:52.365Z,97.02
2017-03-14T02:34:33.033Z,97.12
2017-03-14T02:35:13.665Z,97.12
2017-03-14T02:35:54.324Z,97.12
2017-03-14T02:36:35.515Z,96.92
2017-03-14T02:37:16.193Z,97.12
2017-03-14T02:37:56.892Z,97.12
2017-03-14T02:38:37.474Z,96.92
2017-03-14T02:39:18.097Z,97.12
2017-03-14T02:39:59.732Z,97.21
2017-03-14T02:40:41.339Z,97.21
2017-03-14T02:41:21.899Z,97.02
2017-03-14T02:42:02.540Z,97.02
2017-03-14T02:42:43.220Z,96.92
2017-03-14T02:43:23.865Z,96.92
2017-03-14T02:44:04.485Z,97.12
2017-03-14T02:44:46.099Z,96.73
2017-03-14T02:45:26.748Z,96.83
2017-03-14T02:46:08.424Z,97.12
2017-03-14T02:46:49.082Z,96.73
2017-03-14T02:47:29.671Z,96.83
2017-03-14T02:48:10.228Z,96.83
2017-03-14T02:48:50.941Z,97.12
2017-03-14T02:49:36.388Z,97.12
2017-03-14T02:50:16.960Z,97.12
2017-03-14T02:50:58.623Z,97.12
2017-03-14T02:51:39.340Z,97.02
2017-03-14T02:52:19.918Z,97.02
2017-03-14T02:53:01.576Z,97.02
2017-03-14T02:53:42.240Z,97.02
2017-03-14T02:54:22.885Z,97.12
2017-03-14T02:55:05.587Z,97.21
2017-03-14T02:55:47.271Z,97.02
2017-03-14T02:56:27.924Z,97.21
2017-03-14T02:57:09.597Z,97.12
2017-03-14T02:57:50.255Z,97.12
2017-03-14T02:58:37.667Z,97.12
2017-03-14T02:59:23.348Z,97.12
2017-03-14T03:00:03.989Z,96.73
2017-03-14T03:00:46.686Z,96.83
2017-03-14T03:01:29.399Z,96.83
2017-03-14T03:02:21.051Z,96.83
2017-03-14T03:03:08.388Z,97.02
2017-03-14T03:03:49.030Z,96.92
2017-03-14T03:04:34.233Z,97.12
2017-03-14T03:05:16.867Z,97.12
2017-03-14T03:05:59.501Z,97.31
2017-03-14T03:06:40.069Z,97.12
2017-03-14T03:07:20.732Z,97.31
2017-03-14T03:08:01.360Z,97.12
2017-03-14T03:08:41.911Z,97.31
2017-03-14T03:09:24.533Z,97.5
2017-03-14T03:10:05.164Z,97.21
2017-03-14T03:10:45.737Z,97.5
2017-03-14T03:11:27.414Z,97.5
2017-03-14T03:12:09.070Z,97.69
2017-03-14T03:12:49.719Z,97.59
2017-03-14T03:13:30.372Z,97.69
2017-03-14T03:14:13.078Z,97.69
2017-03-14T03:14:53.731Z,97.78
2017-03-14T03:15:35.405Z,97.69
2017-03-14T03:16:17.076Z,97.31
2017-03-14T03:16:57.665Z,97.5
2017-03-14T03:17:45.180Z,97.4
2017-03-14T03:18:25.854Z,97.21
2017-03-14T03:19:07.480Z,97.4
2017-03-14T03:19:48.061Z,97.4
2017-03-14T03:20:30.766Z,97.88
2017-03-14T03:21:11.439Z,97.59
2017-03-14T03:21:56.846Z,97.88
2017-03-14T03:22:37.421Z,97.69
2017-03-14T03:23:18.081Z,97.88
2017-03-14T03:23:59.682Z,98.07
2017-03-14T03:24:44.877Z,97.5
2017-03-14T03:25:25.455Z,97.5
2017-03-14T03:26:06.113Z,97.5
2017-03-14T03:26:51.495Z,97.59
2017-03-14T03:27:32.064Z,97.88
2017-03-14T03:28:12.683Z,97.59
2017-03-14T03:28:57.920Z,97.59
2017-03-14T03:29:38.513Z,97.69
2017-03-14T03:30:20.163Z,97.69
2017-03-14T03:31:00.799Z,97.69
2017-03-14T03:31:41.366Z,98.25
2017-03-14T03:32:22.038Z,97.69
2017-03-14T03:33:02.677Z,97.78
2017-03-14T03:33:44.357Z,97.97
2017-03-14T03:34:25.026Z,97.78
2017-03-14T03:35:06.679Z,97.78
2017-03-14T03:35:47.324Z,97.88
2017-03-14T03:36:28.999Z,97.97
2017-03-14T03:37:11.598Z,97.88
2017-03-14T03:37:52.255Z,97.88
2017-03-14T03:38:32.905Z,98.16
2017-03-14T03:39:13.568Z,97.59
2017-03-14T03:39:59.240Z,97.78
2017-03-14T03:40:46.766Z,97.5
2017-03-14T03:41:28.430Z,97.78
2017-03-14T03:42:09.016Z,97.69
2017-03-14T03:42:49.708Z,97.59
2017-03-14T03:43:30.276Z,97.59
2017-03-14T03:44:15.633Z,97.69
2017-03-14T03:45:01.961Z,97.59
2017-03-14T03:45:43.602Z,97.69
2017-03-14T03:46:24.206Z,97.59
2017-03-14T03:47:05.815Z,97.69
2017-03-14T03:47:51.188Z,97.69
2017-03-14T03:48:36.658Z,97.69
2017-03-14T03:49:17.316Z,97.69
2017-03-14T03:49:57.980Z,98.44
2017-03-14T03:50:38.625Z,97.4
2017-03-14T03:51:21.222Z,98.16
2017-03-14T03:52:01.874Z,98.35
2017-03-14T03:52:49.202Z,98.25
2017-03-14T03:53:29.846Z,98.25
2017-03-14T03:54:10.497Z,98.54
2017-03-14T03:55:03.735Z,98.16
2017-03-14T03:55:44.412Z,98.16
2017-03-14T03:56:30.684Z,98.25
2017-03-14T03:57:22.190Z,98.07
2017-03-14T03:58:02.846Z,98.07
2017-03-14T03:58:44.520Z,97.88
2017-03-14T03:59:25.167Z,97.97
2017-03-14T04:00:06.847Z,98.07
2017-03-14T04:00:52.207Z,98.07
2017-03-14T04:01:39.723Z,98.25
2017-03-14T04:02:21.346Z,97.78
2017-03-14T04:03:13.908Z,97.88
2017-03-14T04:03:55.040Z,98.73
2017-03-14T04:04:36.664Z,98.54
2017-03-14T04:05:18.275Z,98.63
2017-03-14T04:05:58.885Z,97.97
2017-03-14T04:06:39.436Z,97.97
2017-03-14T04:07:22.050Z,98.73
2017-03-14T04:08:03.725Z,98.73
2017-03-14T04:08:44.380Z,98.35
2017-03-14T04:09:29.745Z,98.54
2017-03-14T04:10:12.341Z,98.35
2017-03-14T04:10:58.721Z,98.54
2017-03-14T04:11:44.187Z,98.35
2017-03-14T04:12:25.873Z,98.35
2017-03-14T04:13:08.477Z,98.35
2017-03-14T04:13:51.073Z,98.44
2017-03-14T04:14:38.681Z,98.44
2017-03-14T04:15:31.217Z,98.07
2017-03-14T04:16:12.933Z,98.25
2017-03-14T04:16:58.144Z,98.25
2017-03-14T04:17:44.748Z,98.35
2017-03-14T04:18:31.250Z,98.35
2017-03-14T04:19:13.834Z,98.25
2017-03-14T04:19:56.441Z,98.35
2017-03-14T04:20:37.085Z,98.54
2017-03-14T04:21:22.827Z,98.35
2017-03-14T04:22:04.433Z,98.44
2017-03-14T04:22:46.087Z,98.54
2017-03-14T04:23:26.663Z,98.44
2017-03-14T04:24:09.254Z,98.63
2017-03-14T04:24:50.925Z,97.97
2017-03-14T04:25:31.494Z,98.35
2017-03-14T04:26:16.761Z,98.35
2017-03-14T04:26:57.374Z,98.63
2017-03-14T04:27:38.035Z,98.54
2017-03-14T04:28:25.451Z,98.35
2017-03-14T04:29:16.844Z,98.54
2017-03-14T04:30:09.396Z,98.35
2017-03-14T04:30:55.873Z,98.07
2017-03-14T04:31:36.546Z,98.16
2017-03-14T04:32:18.206Z,98.44
2017-03-14T04:32:59.877Z,98.25
2017-03-14T04:33:40.529Z,98.63
2017-03-14T04:34:21.181Z,98.63
2017-03-14T04:35:06.350Z,98.25
2017-03-14T04:35:48.018Z,98.44
2017-03-14T04:36:28.674Z,98.44
2017-03-14T04:37:09.319Z,98.16
2017-03-14T04:37:49.975Z,98.35
2017-03-14T04:38:31.641Z,98.35
2017-03-14T04:39:12.308Z,98.35
2017-03-14T04:39:54.913Z,98.35
2017-03-14T04:40:40.371Z,98.54
2017-03-14T04:41:21.022Z,98.73
2017-03-14T04:42:01.692Z,98.35
2017-03-14T04:42:43.350Z,98.35
2017-03-14T04:43:24.006Z,98.16
2017-03-14T04:44:05.684Z,98.35
2017-03-14T04:44:48.297Z,98.35
2017-03-14T04:45:30.881Z,98.44
2017-03-14T04:46:16.342Z,99.01
2017-03-14T04:46:58.023Z,98.16
2017-03-14T04:47:40.627Z,98.07
2017-03-14T04:48:21.279Z,98.07
2017-03-14T04:49:01.938Z,98.07
2017-03-14T04:49:42.585Z,98.16
2017-03-14T04:50:23.253Z,98.16
2017-03-14T04:51:04.917Z,98.35
2017-03-14T04:51:46.516Z,98.25
2017-03-14T04:52:27.079Z,98.25
2017-03-14T04:53:07.718Z,98.21
2017-03-14T04:53:48.300Z,98.35
2017-03-14T04:54:28.890Z,98.82
2017-03-14T04:55:09.457Z,98.82
2017-03-14T04:55:52.049Z,98.44
2017-03-14T04:56:32.644Z,98.49
2017-03-14T04:57:13.242Z,98.44
2017-03-14T04:57:53.900Z,98.82
2017-03-14T04:58:34.556Z,98.54
2017-03-14T04:59:15.213Z,98.63
2017-03-14T04:59:55.860Z,98.44
2017-03-14T05:00:53.410Z,98.63
2017-03-14T05:01:35.098Z,98.63
2017-03-14T05:02:15.666Z,98.73
2017-03-14T05:02:56.325Z,98.44
2017-03-14T05:03:41.514Z,98.73
2017-03-14T05:04:24.146Z,98.44
2017-03-14T05:05:04.709Z,98.54
2017-03-14T05:05:45.367Z,98.82
2017-03-14T05:06:25.951Z,98.73
2017-03-14T05:07:12.399Z,98.25
2017-03-14T05:07:53.017Z,98.3
2017-03-14T05:08:39.254Z,98.21
2017-03-14T05:09:20.931Z,98.25
2017-03-14T05:10:01.614Z,98.21
2017-03-14T05:10:43.254Z,98.11
2017-03-14T05:11:25.854Z,98.82
2017-03-14T05:12:06.499Z,98.54
2017-03-14T05:12:49.100Z,98.44
2017-03-14T05:13:29.747Z,98.39
2017-03-14T05:14:22.185Z,98.39
2017-03-14T05:15:02.836Z,98.68
2017-03-14T05:15:54.245Z,98.35
2017-03-14T05:16:35.929Z,98.58
2017-03-14T05:17:17.589Z,98.54
2017-03-14T05:17:58.160Z,98.21
2017-03-14T05:18:40.767Z,98.49
2017-03-14T05:19:21.390Z,98.49
2017-03-14T05:20:03.990Z,98.49
2017-03-14T05:20:57.251Z,98.49
2017-03-14T05:21:39.849Z,98.73
2017-03-14T05:22:25.388Z,98.68
2017-03-14T05:23:05.962Z,98.73
2017-03-14T05:23:47.649Z,98.73
2017-03-14T05:24:28.276Z,98.68
2017-03-14T05:25:10.542Z,98.68
2017-03-14T05:25:51.143Z,98.68
2017-03-14T05:26:31.774Z,98.68
2017-03-14T05:27:12.335Z,99.01
2017-03-14T05:27:57.705Z,98.58
2017-03-14T05:28:38.292Z,98.11
2017-03-14T05:29:19.907Z,98.68
2017-03-14T05:30:00.477Z,98.63
2017-03-14T05:30:41.135Z,98.96
2017-03-14T05:31:26.533Z,98.58
2017-03-14T05:32:09.183Z,98.58
2017-03-14T05:32:49.828Z,98.11
2017-03-14T05:33:30.481Z,98.49
2017-03-14T05:34:11.131Z,98.39
2017-03-14T05:34:51.790Z,98.3
2017-03-14T05:35:32.454Z,98.63
2017-03-14T05:36:17.911Z,98.73
2017-03-14T05:37:00.509Z,98.54
2017-03-14T05:37:51.908Z,98.54
2017-03-14T05:38:34.514Z,98.44
2017-03-14T05:39:16.183Z,98.35
2017-03-14T05:39:56.834Z,98.35
2017-03-14T05:40:37.494Z,98.44
2017-03-14T05:41:18.054Z,98.44
2017-03-14T05:41:58.725Z,98.35
2017-03-14T05:42:46.064Z,98.73
2017-03-14T05:43:27.701Z,98.73
2017-03-14T05:44:08.271Z,98.63
2017-03-14T05:44:48.894Z,98.44
2017-03-14T05:45:29.494Z,98.63
2017-03-14T05:46:10.200Z,98.63
2017-03-14T05:46:50.796Z,98.63
2017-03-14T05:47:32.475Z,98.44
2017-03-14T05:48:17.705Z,98.73
2017-03-14T05:49:13.212Z,98.25
2017-03-14T05:49:53.871Z,98.35
2017-03-14T05:50:34.497Z,98.35
2017-03-14T05:51:15.163Z,98.16
2017-03-14T05:51:56.831Z,98.25
2017-03-14T05:52:38.451Z,98.44
2017-03-14T05:53:19.050Z,98.25
2017-03-14T05:53:59.604Z,98.25
2017-03-14T05:54:42.216Z,98.16
2017-03-14T05:55:23.819Z,98.07
2017-03-14T05:56:04.516Z,98.25
2017-03-14T05:56:45.099Z,98.54
2017-03-14T05:57:27.706Z,98.63
2017-03-14T05:58:09.307Z,98.35
2017-03-14T05:58:51.952Z,98.25
2017-03-14T05:59:32.521Z,98.25
2017-03-14T06:00:13.200Z,98.25
2017-03-14T06:01:00.519Z,98.54
2017-03-14T06:01:45.933Z,98.44
2017-03-14T06:02:26.483Z,98.44
2017-03-14T06:04:29.123Z,98.54
2017-03-14T06:05:09.719Z,98.54
2017-03-14T06:05:50.315Z,98.44
2017-03-14T06:06:30.887Z,97.97
2017-03-14T06:07:12.502Z,97.78
2017-03-14T06:07:54.190Z,98.25
2017-03-14T06:08:34.831Z,98.25
2017-03-14T06:09:17.432Z,98.25
2017-03-14T06:10:00.030Z,97.97
2017-03-14T06:10:40.675Z,98.35
2017-03-14T06:11:27.164Z,98.16
2017-03-14T06:12:08.876Z,98.07
2017-03-14T06:12:49.504Z,98.07
2017-03-14T06:13:30.155Z,98.25
2017-03-14T06:14:12.745Z,98.35
2017-03-14T06:14:53.412Z,98.35
2017-03-14T06:15:34.059Z,98.35
2017-03-14T06:16:19.638Z,97.69
2017-03-14T06:17:06.118Z,97.69
2017-03-14T06:17:46.770Z,97.59
2017-03-14T06:18:28.453Z,97.69
2017-03-14T06:19:09.106Z,97.69
2017-03-14T06:19:50.779Z,97.59
2017-03-14T06:20:32.468Z,97.97
2017-03-14T06:21:17.606Z,97.69
2017-03-14T06:21:59.278Z,97.59
2017-03-14T06:22:40.851Z,97.97
2017-03-14T06:23:23.453Z,97.31
2017-03-14T06:24:04.113Z,97.4
2017-03-14T06:24:44.759Z,97.31
2017-03-14T06:25:25.432Z,97.31
2017-03-14T06:26:06.070Z,97.59
2017-03-14T06:26:47.773Z,97.59
2017-03-14T06:27:28.395Z,97.59
2017-03-14T06:28:09.048Z,97.69
2017-03-14T06:28:54.641Z,97.69
2017-03-14T06:29:35.273Z,97.5
2017-03-14T06:30:15.939Z,97.4
2017-03-14T06:30:58.526Z,97.69
2017-03-14T06:31:41.172Z,97.69
2017-03-14T06:32:21.761Z,97.69
2017-03-14T06:33:02.329Z,97.69
2017-03-14T06:33:42.980Z,97.21
2017-03-14T06:34:23.595Z,97.12
2017-03-14T06:35:04.270Z,96.83
2017-03-14T06:35:44.837Z,97.02
2017-03-14T06:36:25.482Z,97.02
2017-03-14T06:37:07.107Z,96.83
2017-03-14T06:37:47.700Z,97.12
2017-03-14T06:38:28.274Z,97.02
2017-03-14T06:39:08.927Z,96.92
2017-03-14T06:39:54.429Z,97.21
2017-03-14T06:40:35.017Z,97.45
2017-03-14T06:41:15.598Z,96.92
2017-03-14T06:41:56.237Z,96.88
2017-03-14T06:42:38.908Z,96.88
2017-03-14T06:43:19.477Z,97.07
2017-03-14T06:44:00.045Z,96.97
2017-03-14T06:44:40.716Z,96.97
2017-03-14T06:45:21.386Z,96.41
2017-03-14T06:46:04.038Z,96.5
2017-03-14T06:46:44.633Z,96.59
2017-03-14T06:47:25.262Z,96.59
2017-03-14T06:48:11.827Z,96.12
2017-03-14T06:48:52.391Z,96.41
2017-03-14T06:49:33.048Z,96.31
2017-03-14T06:50:14.719Z,96.41
2017-03-14T06:50:55.302Z,96.5
2017-03-14T06:51:35.924Z,96.59
2017-03-14T06:52:16.570Z,96.12
2017-03-14T06:52:59.164Z,96.03
2017-03-14T06:53:39.810Z,95.93
2017-03-14T06:54:21.500Z,96.41
2017-03-14T06:55:06.860Z,96.22
2017-03-14T06:55:47.510Z,96.03
2017-03-14T06:56:28.171Z,96.03
2017-03-14T06:57:08.813Z,96.03
2017-03-14T06:57:49.474Z,95.84
2017-03-14T06:58:31.153Z,96.03
2017-03-14T06:59:11.805Z,96.22
2017-03-14T06:59:52.448Z,96.41
2017-03-14T07:00:33.132Z,96.31
2017-03-14T07:01:13.752Z,95.74
2017-03-14T07:01:54.406Z,95.55
2017-03-14T07:02:34.951Z,95.74
2017-03-14T07:03:15.547Z,95.84
2017-03-14T07:03:57.211Z,95.74
2017-03-14T07:04:37.862Z,95.65
2017-03-14T07:05:18.526Z,95.55
2017-03-14T07:05:59.168Z,95.65
2017-03-14T07:06:39.835Z,95.93
2017-03-14T07:07:27.242Z,95.84
2017-03-14T07:08:07.875Z,95.74
2017-03-14T07:08:49.469Z,95.27
2017-03-14T07:09:30.138Z,95.55
2017-03-14T07:10:10.759Z,95.55
2017-03-14T07:10:58.183Z,95.46
2017-03-14T07:11:38.844Z,95.55
2017-03-14T07:12:20.513Z,95.55
2017-03-14T07:13:01.168Z,95.17
2017-03-14T07:13:43.765Z,94.89
2017-03-14T07:14:24.409Z,95.27
2017-03-14T07:15:06.097Z,95.17
2017-03-14T07:15:52.687Z,94.98
2017-03-14T07:16:33.348Z,94.98
2017-03-14T07:17:13.984Z,95.17
2017-03-14T07:17:54.628Z,94.98
2017-03-14T07:18:41.111Z,94.89
2017-03-14T07:19:22.681Z,94.51
2017-03-14T07:20:03.370Z,94.79
2017-03-14T07:20:44.032Z,94.98
2017-03-14T07:21:25.691Z,95.27
2017-03-14T07:22:07.396Z,95.07
2017-03-14T07:22:54.683Z,94.6
2017-03-14T07:23:37.263Z,94.79
2017-03-14T07:24:24.675Z,94.98
2017-03-14T07:25:06.238Z,95.07
2017-03-14T07:25:52.627Z,94.6
2017-03-14T07:26:35.260Z,94.79
2017-03-14T07:27:16.918Z,94.79
2017-03-14T07:28:04.579Z,94.79
2017-03-14T07:28:45.130Z,94.6
2017-03-14T07:29:26.775Z,94.51
2017-03-14T07:30:07.338Z,94.79
2017-03-14T07:30:48.934Z,94.98
2017-03-14T07:31:29.550Z,94.79
2017-03-14T07:32:10.122Z,94.79
2017-03-14T07:32:52.801Z,94.51
2017-03-14T07:33:33.454Z,94.32
2017-03-14T07:34:14.090Z,94.32
2017-03-14T07:34:54.785Z,94.42
2017-03-14T07:35:35.451Z,94.23
2017-03-14T07:36:26.610Z,94.51
2017-03-14T07:37:07.264Z,94.37
2017-03-14T07:37:47.933Z,93.7
2017-03-14T07:38:29.595Z,93.89
2017-03-14T07:39:11.287Z,93.8
2017-03-14T07:39:53.879Z,93.99
2017-03-14T07:40:34.514Z,93.51
2017-03-14T07:41:20.588Z,93.13
2017-03-14T07:42:02.166Z,92.71
2017-03-14T07:42:44.794Z,92.71
2017-03-14T07:43:27.415Z,92.32
2017-03-14T07:44:08.028Z,92.42
2017-03-14T07:44:48.616Z,91.85
2017-03-14T07:45:30.254Z,91.75
2017-03-14T07:46:12.892Z,91.47
2017-03-14T07:46:55.531Z,91.47
2017-03-14T07:47:36.106Z,91.38
2017-03-14T07:48:17.775Z,90.9
2017-03-14T07:49:03.902Z,90.99
2017-03-14T07:49:44.552Z,90.33
2017-03-14T07:50:25.207Z,91.19
2017-03-14T07:51:10.459Z,90.85
2017-03-14T07:51:53.065Z,91.23
2017-03-14T07:52:34.745Z,90.94
2017-03-14T07:53:20.173Z,91.13
2017-03-14T07:54:11.727Z,90.47
2017-03-14T07:54:52.326Z,90.75
2017-03-14T07:55:43.625Z,90.37
2017-03-14T07:56:25.317Z,90.09
2017-03-14T07:57:05.962Z,90.09
2017-03-14T07:57:51.131Z,89.9
2017-03-14T07:58:31.816Z,90.09
2017-03-14T07:59:12.407Z,89.8
2017-03-14T07:59:52.965Z,89.71
2017-03-14T08:00:34.569Z,89.9
2017-03-14T08:01:15.244Z,90.09
2017-03-14T08:01:55.836Z,89.42
2017-03-14T08:02:36.404Z,89.52
2017-03-14T08:03:22.693Z,89.52
2017-03-14T08:04:04.307Z,89.42
2017-03-14T08:04:44.896Z,89.33
2017-03-14T08:05:25.464Z,89.04
2017-03-14T08:06:10.623Z,89.33
2017-03-14T08:06:51.218Z,88.95
2017-03-14T08:07:31.810Z,88.95
2017-03-14T08:08:12.474Z,88.95
2017-03-14T08:08:53.133Z,89.14
2017-03-14T08:09:33.796Z,88.85
2017-03-14T08:10:14.453Z,88.47
2017-03-14T08:10:55.120Z,88.38
2017-03-14T08:11:35.755Z,88.47
2017-03-14T08:12:16.409Z,88.19
2017-03-14T08:12:56.987Z,88.28
2017-03-14T08:13:37.637Z,88.38
2017-03-14T08:14:18.208Z,88.67
2017-03-14T08:14:58.820Z,88.38
2017-03-14T08:15:39.407Z,88.19
2017-03-14T08:16:20.037Z,88.28
2017-03-14T08:17:00.629Z,88.09
2017-03-14T08:17:41.245Z,88.19
2017-03-14T08:18:21.865Z,87.62
2017-03-14T08:19:02.529Z,87.81
2017-03-14T08:19:43.190Z,87.62
2017-03-14T08:20:23.824Z,87.71
2017-03-14T08:21:04.491Z,87.05
2017-03-14T08:22:52.585Z,87.43
2017-03-14T08:23:33.219Z,86.95
2017-03-14T08:24:13.820Z,87.43
2017-03-14T08:24:54.385Z,86.67
2017-03-14T08:25:35.024Z,86.99
2017-03-14T08:26:16.680Z,86.8
2017-03-14T08:26:57.395Z,86.71
2017-03-14T08:27:38.032Z,86.9
2017-03-14T08:28:18.775Z,86.33
2017-03-14T08:29:00.390Z,86.14
2017-03-14T08:29:41.063Z,86.33
2017-03-14T08:30:22.797Z,86.33
2017-03-14T08:31:03.459Z,85.47
2017-03-14T08:31:44.123Z,85.76
2017-03-14T08:32:24.725Z,85.57
2017-03-14T08:33:05.293Z,85.95
2017-03-14T08:33:45.915Z,85.19
2017-03-14T08:34:26.568Z,85.38
2017-03-14T08:35:07.202Z,85
2017-03-14T08:35:47.852Z,85.47
2017-03-14T08:36:28.494Z,85
2017-03-14T08:37:09.168Z,84.85
2017-03-14T08:37:49.828Z,85.1
2017-03-14T08:38:30.480Z,84.56
2017-03-14T08:39:11.116Z,84.85
2017-03-14T08:39:51.750Z,84.38
2017-03-14T08:40:32.438Z,84.56
2017-03-14T08:41:13.075Z,84.19
2017-03-14T08:41:53.717Z,83.9
2017-03-14T08:42:34.413Z,83.81
2017-03-14T08:43:15.075Z,83.62
2017-03-14T08:43:55.669Z,83.9
2017-03-14T08:44:36.257Z,84
2017-03-14T08:45:16.879Z,83.9
2017-03-14T08:45:57.480Z,84
2017-03-14T08:46:38.076Z,83.62
2017-03-14T08:47:18.635Z,83.23
2017-03-14T08:47:59.205Z,83.52
2017-03-14T08:48:39.848Z,83.9
2017-03-14T08:49:20.544Z,83.62
2017-03-14T08:50:01.135Z,83.42
2017-03-14T08:50:41.724Z,83.42
2017-03-14T08:51:22.366Z,83.62
2017-03-14T08:52:02.949Z,83.23
2017-03-14T08:52:44.565Z,83.23
2017-03-14T08:53:25.130Z,82.95
2017-03-14T08:54:05.818Z,83.14
2017-03-14T08:54:46.344Z,82.95
2017-03-14T08:55:26.974Z,82.86
2017-03-14T08:56:07.538Z,82.86
2017-03-14T08:56:48.179Z,82.86
2017-03-14T08:57:28.787Z,82.86
2017-03-14T08:58:09.448Z,82.48
2017-03-14T08:58:50.093Z,82.67
2017-03-14T08:59:30.748Z,82.76
2017-03-14T09:00:11.400Z,82.67
2017-03-14T09:00:52.044Z,82.7
2017-03-14T09:01:32.708Z,82.57